sensor_id;sensor_type;location;lat;lon;timestamp;P1;durP1;ratioP1;P2;durP2;ratioP2
7128;SDS011;3606;52.930;8.644;2022-11-21T00:01:54;15.47;;;11.80;;
7128;SDS011;3606;52.930;8.644;2022-11-21T00:04:19;20.83;;;12.20;;
7128;SDS011;3606;52.930;8.644;2022-11-21T00:06:45;15.90;;;11.37;;
7128;SDS011;3606;52.930;8.644;2022-11-21T00:09:10;18.33;;;12.30;;
7128;SDS011;3606;52.930;8.644;2022-11-21T00:11:36;18.03;;;11.80;;
7128;SDS011;3606;52.930;8.644;2022-11-21T00:14:02;19.93;;;12.17;;
7128;SDS011;3606;52.930;8.644;2022-11-21T00:16:27;18.53;;;12.87;;
7128;SDS011;3606;52.930;8.644;2022-11-21T00:18:53;17.90;;;12.03;;
7128;SDS011;3606;52.930;8.644;2022-11-21T00:21:18;16.33;;;12.30;;
7128;SDS011;3606;52.930;8.644;2022-11-21T00:23:45;20.83;;;12.60;;
7128;SDS011;3606;52.930;8.644;2022-11-21T00:26:12;15.93;;;12.07;;
7128;SDS011;3606;52.930;8.644;2022-11-21T00:28:39;23.30;;;13.23;;
7128;SDS011;3606;52.930;8.644;2022-11-21T00:31:05;18.20;;;11.87;;
7128;SDS011;3606;52.930;8.644;2022-11-21T00:33:33;19.00;;;13.13;;
7128;SDS011;3606;52.930;8.644;2022-11-21T00:36:04;17.27;;;12.00;;
7128;SDS011;3606;52.930;8.644;2022-11-21T00:38:33;19.23;;;12.73;;
7128;SDS011;3606;52.930;8.644;2022-11-21T00:40:59;17.67;;;12.23;;
7128;SDS011;3606;52.930;8.644;2022-11-21T00:43:25;18.00;;;12.63;;
7128;SDS011;3606;52.930;8.644;2022-11-21T00:45:50;16.10;;;11.67;;
7128;SDS011;3606;52.930;8.644;2022-11-21T00:48:16;21.23;;;13.93;;
7128;SDS011;3606;52.930;8.644;2022-11-21T00:50:42;19.60;;;13.37;;
7128;SDS011;3606;52.930;8.644;2022-11-21T00:53:07;19.93;;;12.93;;
7128;SDS011;3606;52.930;8.644;2022-11-21T00:55:33;18.27;;;12.87;;
7128;SDS011;3606;52.930;8.644;2022-11-21T00:58:01;18.27;;;11.80;;
7128;SDS011;3606;52.930;8.644;2022-11-21T01:00:26;15.53;;;11.33;;
7128;SDS011;3606;52.930;8.644;2022-11-21T01:02:52;16.03;;;11.57;;
7128;SDS011;3606;52.930;8.644;2022-11-21T01:05:18;16.73;;;11.73;;
7128;SDS011;3606;52.930;8.644;2022-11-21T01:07:43;16.70;;;11.73;;
7128;SDS011;3606;52.930;8.644;2022-11-21T01:10:09;16.77;;;12.33;;
7128;SDS011;3606;52.930;8.644;2022-11-21T01:12:34;15.90;;;11.03;;
7128;SDS011;3606;52.930;8.644;2022-11-21T01:15:00;17.77;;;11.27;;
7128;SDS011;3606;52.930;8.644;2022-11-21T01:17:26;15.40;;;11.77;;
7128;SDS011;3606;52.930;8.644;2022-11-21T01:19:51;19.40;;;12.03;;
7128;SDS011;3606;52.930;8.644;2022-11-21T01:22:17;18.73;;;11.27;;
7128;SDS011;3606;52.930;8.644;2022-11-21T01:24:42;19.13;;;11.97;;
7128;SDS011;3606;52.930;8.644;2022-11-21T01:27:08;18.73;;;12.47;;
7128;SDS011;3606;52.930;8.644;2022-11-21T01:29:33;18.00;;;12.00;;
7128;SDS011;3606;52.930;8.644;2022-11-21T01:31:59;17.10;;;12.03;;
7128;SDS011;3606;52.930;8.644;2022-11-21T01:34:24;18.43;;;12.13;;
7128;SDS011;3606;52.930;8.644;2022-11-21T01:36:50;17.90;;;11.67;;
7128;SDS011;3606;52.930;8.644;2022-11-21T01:39:16;19.67;;;12.07;;
7128;SDS011;3606;52.930;8.644;2022-11-21T01:41:43;15.23;;;11.23;;
7128;SDS011;3606;52.930;8.644;2022-11-21T01:44:23;16.93;;;11.63;;
7128;SDS011;3606;52.930;8.644;2022-11-21T01:46:50;19.33;;;12.07;;
7128;SDS011;3606;52.930;8.644;2022-11-21T01:49:17;18.00;;;11.83;;
7128;SDS011;3606;52.930;8.644;2022-11-21T01:57:00;16.27;;;10.77;;
7128;SDS011;3606;52.930;8.644;2022-11-21T02:02:05;16.03;;;10.77;;
7128;SDS011;3606;52.930;8.644;2022-11-21T02:04:32;17.43;;;10.60;;
7128;SDS011;3606;52.930;8.644;2022-11-21T02:07:00;18.70;;;11.60;;
7128;SDS011;3606;52.930;8.644;2022-11-21T02:09:28;15.13;;;10.77;;
7128;SDS011;3606;52.930;8.644;2022-11-21T02:11:57;17.80;;;10.57;;
7128;SDS011;3606;52.930;8.644;2022-11-21T02:14:37;14.67;;;10.63;;
7128;SDS011;3606;52.930;8.644;2022-11-21T02:17:06;13.77;;;10.87;;
7128;SDS011;3606;52.930;8.644;2022-11-21T02:24:57;15.50;;;10.30;;
7128;SDS011;3606;52.930;8.644;2022-11-21T02:27:25;20.17;;;12.40;;
7128;SDS011;3606;52.930;8.644;2022-11-21T02:29:51;16.77;;;11.30;;
7128;SDS011;3606;52.930;8.644;2022-11-21T02:32:21;17.20;;;11.17;;
7128;SDS011;3606;52.930;8.644;2022-11-21T02:34:48;17.27;;;10.30;;
7128;SDS011;3606;52.930;8.644;2022-11-21T02:37:13;18.57;;;11.40;;
7128;SDS011;3606;52.930;8.644;2022-11-21T02:39:40;15.97;;;10.77;;
7128;SDS011;3606;52.930;8.644;2022-11-21T02:42:08;18.60;;;11.17;;
7128;SDS011;3606;52.930;8.644;2022-11-21T02:45:02;15.20;;;10.40;;
7128;SDS011;3606;52.930;8.644;2022-11-21T02:47:44;18.53;;;11.83;;
7128;SDS011;3606;52.930;8.644;2022-11-21T02:50:30;16.20;;;10.13;;
7128;SDS011;3606;52.930;8.644;2022-11-21T02:52:57;16.07;;;10.63;;
7128;SDS011;3606;52.930;8.644;2022-11-21T02:55:23;18.53;;;10.90;;
7128;SDS011;3606;52.930;8.644;2022-11-21T02:57:50;14.63;;;10.27;;
7128;SDS011;3606;52.930;8.644;2022-11-21T03:00:16;15.00;;;9.73;;
7128;SDS011;3606;52.930;8.644;2022-11-21T03:02:42;17.50;;;10.83;;
7128;SDS011;3606;52.930;8.644;2022-11-21T03:05:08;16.97;;;10.33;;
7128;SDS011;3606;52.930;8.644;2022-11-21T03:07:35;14.53;;;10.97;;
7128;SDS011;3606;52.930;8.644;2022-11-21T03:10:01;16.07;;;10.27;;
7128;SDS011;3606;52.930;8.644;2022-11-21T03:12:27;14.70;;;10.57;;
7128;SDS011;3606;52.930;8.644;2022-11-21T03:14:53;13.53;;;9.67;;
7128;SDS011;3606;52.930;8.644;2022-11-21T03:17:18;17.27;;;10.63;;
7128;SDS011;3606;52.930;8.644;2022-11-21T03:19:44;15.40;;;10.17;;
7128;SDS011;3606;52.930;8.644;2022-11-21T03:22:10;14.80;;;10.63;;
7128;SDS011;3606;52.930;8.644;2022-11-21T03:24:37;13.73;;;9.17;;
7128;SDS011;3606;52.930;8.644;2022-11-21T03:27:02;18.03;;;10.73;;
7128;SDS011;3606;52.930;8.644;2022-11-21T03:29:28;16.13;;;10.70;;
7128;SDS011;3606;52.930;8.644;2022-11-21T03:31:53;14.00;;;9.87;;
7128;SDS011;3606;52.930;8.644;2022-11-21T03:34:19;15.80;;;10.07;;
7128;SDS011;3606;52.930;8.644;2022-11-21T03:36:45;14.80;;;9.80;;
7128;SDS011;3606;52.930;8.644;2022-11-21T03:39:10;13.80;;;9.50;;
7128;SDS011;3606;52.930;8.644;2022-11-21T03:41:36;15.37;;;10.20;;
7128;SDS011;3606;52.930;8.644;2022-11-21T03:44:03;20.93;;;10.10;;
7128;SDS011;3606;52.930;8.644;2022-11-21T03:46:31;13.50;;;8.83;;
7128;SDS011;3606;52.930;8.644;2022-11-21T03:49:04;15.40;;;8.97;;
7128;SDS011;3606;52.930;8.644;2022-11-21T03:51:30;12.63;;;9.53;;
7128;SDS011;3606;52.930;8.644;2022-11-21T03:53:57;17.33;;;10.20;;
7128;SDS011;3606;52.930;8.644;2022-11-21T03:56:23;19.23;;;10.50;;
7128;SDS011;3606;52.930;8.644;2022-11-21T03:58:49;16.90;;;9.83;;
7128;SDS011;3606;52.930;8.644;2022-11-21T04:01:15;14.63;;;10.77;;
7128;SDS011;3606;52.930;8.644;2022-11-21T04:03:41;17.43;;;10.73;;
7128;SDS011;3606;52.930;8.644;2022-11-21T04:06:08;13.47;;;9.27;;
7128;SDS011;3606;52.930;8.644;2022-11-21T04:08:35;14.70;;;9.37;;
7128;SDS011;3606;52.930;8.644;2022-11-21T04:11:00;20.73;;;9.90;;
7128;SDS011;3606;52.930;8.644;2022-11-21T04:13:26;14.60;;;9.27;;
7128;SDS011;3606;52.930;8.644;2022-11-21T04:15:52;17.07;;;9.80;;
7128;SDS011;3606;52.930;8.644;2022-11-21T04:18:18;16.27;;;9.70;;
7128;SDS011;3606;52.930;8.644;2022-11-21T04:20:44;15.73;;;9.63;;
7128;SDS011;3606;52.930;8.644;2022-11-21T04:23:09;16.97;;;9.90;;
7128;SDS011;3606;52.930;8.644;2022-11-21T04:25:35;16.03;;;9.93;;
7128;SDS011;3606;52.930;8.644;2022-11-21T04:28:01;12.17;;;8.97;;
7128;SDS011;3606;52.930;8.644;2022-11-21T04:30:28;15.07;;;9.53;;
7128;SDS011;3606;52.930;8.644;2022-11-21T04:32:54;14.33;;;9.13;;
7128;SDS011;3606;52.930;8.644;2022-11-21T04:35:20;19.90;;;9.60;;
7128;SDS011;3606;52.930;8.644;2022-11-21T04:37:48;13.10;;;9.07;;
7128;SDS011;3606;52.930;8.644;2022-11-21T04:40:13;14.57;;;9.53;;
7128;SDS011;3606;52.930;8.644;2022-11-21T04:42:40;12.33;;;9.47;;
7128;SDS011;3606;52.930;8.644;2022-11-21T04:45:07;13.77;;;8.77;;
7128;SDS011;3606;52.930;8.644;2022-11-21T04:47:40;12.93;;;8.27;;
7128;SDS011;3606;52.930;8.644;2022-11-21T04:50:08;13.97;;;9.20;;
7128;SDS011;3606;52.930;8.644;2022-11-21T04:52:34;14.80;;;9.33;;
7128;SDS011;3606;52.930;8.644;2022-11-21T04:55:00;14.47;;;9.20;;
7128;SDS011;3606;52.930;8.644;2022-11-21T04:57:27;17.47;;;10.57;;
7128;SDS011;3606;52.930;8.644;2022-11-21T04:59:54;11.43;;;8.53;;
7128;SDS011;3606;52.930;8.644;2022-11-21T05:02:20;12.73;;;8.47;;
7128;SDS011;3606;52.930;8.644;2022-11-21T05:04:46;13.00;;;8.80;;
7128;SDS011;3606;52.930;8.644;2022-11-21T05:07:12;14.83;;;9.23;;
7128;SDS011;3606;52.930;8.644;2022-11-21T05:09:37;13.57;;;8.90;;
7128;SDS011;3606;52.930;8.644;2022-11-21T05:12:03;15.07;;;8.80;;
7128;SDS011;3606;52.930;8.644;2022-11-21T05:14:47;14.70;;;9.13;;
7128;SDS011;3606;52.930;8.644;2022-11-21T05:17:13;13.40;;;8.40;;
7128;SDS011;3606;52.930;8.644;2022-11-21T05:19:39;13.37;;;9.10;;
7128;SDS011;3606;52.930;8.644;2022-11-21T05:22:04;12.63;;;8.60;;
7128;SDS011;3606;52.930;8.644;2022-11-21T05:24:30;13.00;;;9.07;;
7128;SDS011;3606;52.930;8.644;2022-11-21T05:26:55;15.53;;;10.37;;
7128;SDS011;3606;52.930;8.644;2022-11-21T05:29:21;16.20;;;9.73;;
7128;SDS011;3606;52.930;8.644;2022-11-21T05:31:46;15.27;;;9.53;;
7128;SDS011;3606;52.930;8.644;2022-11-21T05:34:12;11.37;;;8.70;;
7128;SDS011;3606;52.930;8.644;2022-11-21T05:36:38;15.40;;;9.57;;
7128;SDS011;3606;52.930;8.644;2022-11-21T05:39:03;15.27;;;9.50;;
7128;SDS011;3606;52.930;8.644;2022-11-21T05:41:29;11.43;;;8.43;;
7128;SDS011;3606;52.930;8.644;2022-11-21T05:43:55;10.33;;;8.03;;
7128;SDS011;3606;52.930;8.644;2022-11-21T05:46:22;13.47;;;9.03;;
7128;SDS011;3606;52.930;8.644;2022-11-21T05:48:49;10.50;;;8.43;;
7128;SDS011;3606;52.930;8.644;2022-11-21T05:51:15;12.43;;;8.90;;
7128;SDS011;3606;52.930;8.644;2022-11-21T05:53:42;14.33;;;9.30;;
7128;SDS011;3606;52.930;8.644;2022-11-21T05:56:08;12.40;;;8.23;;
7128;SDS011;3606;52.930;8.644;2022-11-21T05:58:35;16.37;;;10.20;;
7128;SDS011;3606;52.930;8.644;2022-11-21T06:01:02;15.03;;;8.57;;
7128;SDS011;3606;52.930;8.644;2022-11-21T06:03:29;12.20;;;7.80;;
7128;SDS011;3606;52.930;8.644;2022-11-21T06:06:04;16.03;;;8.97;;
7128;SDS011;3606;52.930;8.644;2022-11-21T06:08:35;13.80;;;9.13;;
7128;SDS011;3606;52.930;8.644;2022-11-21T06:11:02;14.50;;;8.63;;
7128;SDS011;3606;52.930;8.644;2022-11-21T06:13:29;12.83;;;8.43;;
7128;SDS011;3606;52.930;8.644;2022-11-21T06:18:38;13.80;;;9.13;;
7128;SDS011;3606;52.930;8.644;2022-11-21T06:21:06;12.27;;;8.17;;
7128;SDS011;3606;52.930;8.644;2022-11-21T06:23:33;13.87;;;8.80;;
7128;SDS011;3606;52.930;8.644;2022-11-21T06:26:01;13.77;;;9.37;;
7128;SDS011;3606;52.930;8.644;2022-11-21T06:28:32;11.90;;;8.47;;
7128;SDS011;3606;52.930;8.644;2022-11-21T06:31:05;14.50;;;9.23;;
7128;SDS011;3606;52.930;8.644;2022-11-21T06:33:33;12.83;;;8.50;;
7128;SDS011;3606;52.930;8.644;2022-11-21T06:36:06;16.23;;;8.93;;
7128;SDS011;3606;52.930;8.644;2022-11-21T06:38:36;15.43;;;9.07;;
7128;SDS011;3606;52.930;8.644;2022-11-21T06:41:06;13.70;;;8.67;;
7128;SDS011;3606;52.930;8.644;2022-11-21T06:43:34;11.60;;;8.10;;
7128;SDS011;3606;52.930;8.644;2022-11-21T06:46:00;11.43;;;8.17;;
7128;SDS011;3606;52.930;8.644;2022-11-21T06:48:28;12.63;;;9.10;;
7128;SDS011;3606;52.930;8.644;2022-11-21T06:50:56;19.87;;;8.77;;
7128;SDS011;3606;52.930;8.644;2022-11-21T06:53:22;15.90;;;9.73;;
7128;SDS011;3606;52.930;8.644;2022-11-21T06:55:48;13.90;;;10.53;;
7128;SDS011;3606;52.930;8.644;2022-11-21T06:58:13;14.93;;;10.40;;
7128;SDS011;3606;52.930;8.644;2022-11-21T07:00:39;15.27;;;10.00;;
7128;SDS011;3606;52.930;8.644;2022-11-21T07:03:04;12.60;;;9.70;;
7128;SDS011;3606;52.930;8.644;2022-11-21T07:05:30;12.67;;;8.70;;
7128;SDS011;3606;52.930;8.644;2022-11-21T07:08:00;16.83;;;9.63;;
7128;SDS011;3606;52.930;8.644;2022-11-21T07:10:27;17.27;;;10.23;;
7128;SDS011;3606;52.930;8.644;2022-11-21T07:13:00;18.60;;;11.10;;
7128;SDS011;3606;52.930;8.644;2022-11-21T07:15:44;17.43;;;9.43;;
7128;SDS011;3606;52.930;8.644;2022-11-21T07:18:11;11.80;;;8.90;;
7128;SDS011;3606;52.930;8.644;2022-11-21T07:20:37;18.07;;;9.77;;
7128;SDS011;3606;52.930;8.644;2022-11-21T07:23:04;14.73;;;10.73;;
7128;SDS011;3606;52.930;8.644;2022-11-21T07:25:29;13.23;;;8.73;;
7128;SDS011;3606;52.930;8.644;2022-11-21T07:27:58;17.10;;;10.67;;
7128;SDS011;3606;52.930;8.644;2022-11-21T07:30:27;14.50;;;9.90;;
7128;SDS011;3606;52.930;8.644;2022-11-21T07:32:54;16.23;;;11.43;;
7128;SDS011;3606;52.930;8.644;2022-11-21T07:35:20;18.27;;;11.80;;
7128;SDS011;3606;52.930;8.644;2022-11-21T07:37:46;20.50;;;11.60;;
7128;SDS011;3606;52.930;8.644;2022-11-21T07:40:11;17.70;;;12.20;;
7128;SDS011;3606;52.930;8.644;2022-11-21T07:42:37;24.03;;;15.13;;
7128;SDS011;3606;52.930;8.644;2022-11-21T07:45:03;21.17;;;13.60;;
7128;SDS011;3606;52.930;8.644;2022-11-21T07:47:29;25.40;;;15.13;;
7128;SDS011;3606;52.930;8.644;2022-11-21T07:49:54;23.00;;;13.47;;
7128;SDS011;3606;52.930;8.644;2022-11-21T07:52:20;21.13;;;12.37;;
7128;SDS011;3606;52.930;8.644;2022-11-21T07:54:46;18.13;;;12.63;;
7128;SDS011;3606;52.930;8.644;2022-11-21T07:57:11;20.30;;;11.97;;
7128;SDS011;3606;52.930;8.644;2022-11-21T07:59:37;15.43;;;11.83;;
7128;SDS011;3606;52.930;8.644;2022-11-21T08:02:02;19.30;;;13.17;;
7128;SDS011;3606;52.930;8.644;2022-11-21T08:04:28;20.63;;;13.03;;
7128;SDS011;3606;52.930;8.644;2022-11-21T08:06:54;21.33;;;13.57;;
7128;SDS011;3606;52.930;8.644;2022-11-21T08:09:19;22.53;;;14.60;;
7128;SDS011;3606;52.930;8.644;2022-11-21T08:11:45;21.67;;;14.80;;
7128;SDS011;3606;52.930;8.644;2022-11-21T08:14:10;19.70;;;12.50;;
7128;SDS011;3606;52.930;8.644;2022-11-21T08:16:36;19.40;;;13.67;;
7128;SDS011;3606;52.930;8.644;2022-11-21T08:19:02;18.70;;;14.03;;
7128;SDS011;3606;52.930;8.644;2022-11-21T08:21:27;19.77;;;12.57;;
7128;SDS011;3606;52.930;8.644;2022-11-21T08:23:53;18.43;;;11.63;;
7128;SDS011;3606;52.930;8.644;2022-11-21T08:26:19;16.73;;;12.47;;
7128;SDS011;3606;52.930;8.644;2022-11-21T08:28:45;20.03;;;12.60;;
7128;SDS011;3606;52.930;8.644;2022-11-21T08:31:11;21.33;;;11.97;;
7128;SDS011;3606;52.930;8.644;2022-11-21T08:33:36;15.07;;;10.80;;
7128;SDS011;3606;52.930;8.644;2022-11-21T08:36:03;15.57;;;11.47;;
7128;SDS011;3606;52.930;8.644;2022-11-21T08:38:29;19.73;;;11.93;;
7128;SDS011;3606;52.930;8.644;2022-11-21T08:40:54;19.40;;;11.83;;
7128;SDS011;3606;52.930;8.644;2022-11-21T08:43:55;16.87;;;12.23;;
7128;SDS011;3606;52.930;8.644;2022-11-21T08:46:21;19.37;;;11.90;;
7128;SDS011;3606;52.930;8.644;2022-11-21T08:48:51;16.60;;;12.27;;
7128;SDS011;3606;52.930;8.644;2022-11-21T08:51:17;15.73;;;11.57;;
7128;SDS011;3606;52.930;8.644;2022-11-21T08:53:43;16.53;;;12.20;;
7128;SDS011;3606;52.930;8.644;2022-11-21T08:56:08;15.53;;;11.63;;
7128;SDS011;3606;52.930;8.644;2022-11-21T08:58:34;18.30;;;12.23;;
7128;SDS011;3606;52.930;8.644;2022-11-21T09:00:59;17.07;;;12.70;;
7128;SDS011;3606;52.930;8.644;2022-11-21T09:03:25;19.37;;;12.70;;
7128;SDS011;3606;52.930;8.644;2022-11-21T09:05:50;19.67;;;12.50;;
7128;SDS011;3606;52.930;8.644;2022-11-21T09:08:16;16.37;;;11.80;;
7128;SDS011;3606;52.930;8.644;2022-11-21T09:10:42;18.80;;;13.23;;
7128;SDS011;3606;52.930;8.644;2022-11-21T09:13:07;19.97;;;12.83;;
7128;SDS011;3606;52.930;8.644;2022-11-21T09:15:33;19.33;;;13.13;;
7128;SDS011;3606;52.930;8.644;2022-11-21T09:18:17;21.67;;;12.87;;
7128;SDS011;3606;52.930;8.644;2022-11-21T09:20:43;18.23;;;12.30;;
7128;SDS011;3606;52.930;8.644;2022-11-21T09:23:12;18.27;;;13.37;;
7128;SDS011;3606;52.930;8.644;2022-11-21T09:25:39;21.10;;;13.63;;
7128;SDS011;3606;52.930;8.644;2022-11-21T09:28:06;17.67;;;13.13;;
7128;SDS011;3606;52.930;8.644;2022-11-21T09:30:33;18.87;;;12.57;;
7128;SDS011;3606;52.930;8.644;2022-11-21T09:32:59;22.13;;;12.70;;
7128;SDS011;3606;52.930;8.644;2022-11-21T09:35:29;19.17;;;13.53;;
7128;SDS011;3606;52.930;8.644;2022-11-21T09:37:55;18.70;;;13.47;;
7128;SDS011;3606;52.930;8.644;2022-11-21T09:40:21;19.03;;;13.73;;
7128;SDS011;3606;52.930;8.644;2022-11-21T09:45:47;19.90;;;13.10;;
7128;SDS011;3606;52.930;8.644;2022-11-21T09:48:16;16.30;;;11.53;;
7128;SDS011;3606;52.930;8.644;2022-11-21T09:50:56;15.37;;;11.87;;
7128;SDS011;3606;52.930;8.644;2022-11-21T09:53:33;18.73;;;12.30;;
7128;SDS011;3606;52.930;8.644;2022-11-21T09:56:05;16.00;;;12.17;;
7128;SDS011;3606;52.930;8.644;2022-11-21T09:58:36;14.83;;;10.80;;
7128;SDS011;3606;52.930;8.644;2022-11-21T10:01:08;16.80;;;11.80;;
7128;SDS011;3606;52.930;8.644;2022-11-21T10:03:45;15.80;;;11.93;;
7128;SDS011;3606;52.930;8.644;2022-11-21T10:08:51;14.90;;;11.20;;
7128;SDS011;3606;52.930;8.644;2022-11-21T10:11:21;14.47;;;11.43;;
7128;SDS011;3606;52.930;8.644;2022-11-21T10:13:56;15.00;;;11.90;;
7128;SDS011;3606;52.930;8.644;2022-11-21T10:16:50;18.37;;;11.70;;
7128;SDS011;3606;52.930;8.644;2022-11-21T10:25:02;16.53;;;11.87;;
7128;SDS011;3606;52.930;8.644;2022-11-21T10:27:49;14.40;;;11.03;;
7128;SDS011;3606;52.930;8.644;2022-11-21T10:30:19;15.27;;;11.27;;
7128;SDS011;3606;52.930;8.644;2022-11-21T10:32:46;17.87;;;11.80;;
7128;SDS011;3606;52.930;8.644;2022-11-21T10:38:00;13.23;;;10.20;;
7128;SDS011;3606;52.930;8.644;2022-11-21T10:46:06;16.93;;;10.17;;
7128;SDS011;3606;52.930;8.644;2022-11-21T10:48:32;14.90;;;10.30;;
7128;SDS011;3606;52.930;8.644;2022-11-21T10:54:01;13.97;;;9.47;;
7128;SDS011;3606;52.930;8.644;2022-11-21T10:56:54;12.60;;;8.67;;
7128;SDS011;3606;52.930;8.644;2022-11-21T10:59:24;13.60;;;9.43;;
7128;SDS011;3606;52.930;8.644;2022-11-21T11:01:56;14.83;;;9.60;;
7128;SDS011;3606;52.930;8.644;2022-11-21T11:04:25;11.43;;;9.27;;
7128;SDS011;3606;52.930;8.644;2022-11-21T11:06:55;11.27;;;8.97;;
7128;SDS011;3606;52.930;8.644;2022-11-21T11:15:22;13.20;;;8.47;;
7128;SDS011;3606;52.930;8.644;2022-11-21T11:17:53;11.53;;;8.73;;
7128;SDS011;3606;52.930;8.644;2022-11-21T11:22:56;11.20;;;8.57;;
7128;SDS011;3606;52.930;8.644;2022-11-21T11:25:22;11.43;;;8.03;;
7128;SDS011;3606;52.930;8.644;2022-11-21T11:27:47;9.47;;;7.50;;
7128;SDS011;3606;52.930;8.644;2022-11-21T11:30:14;10.63;;;7.57;;
7128;SDS011;3606;52.930;8.644;2022-11-21T11:32:40;10.57;;;7.50;;
7128;SDS011;3606;52.930;8.644;2022-11-21T11:37:41;10.47;;;7.40;;
7128;SDS011;3606;52.930;8.644;2022-11-21T11:40:16;12.40;;;8.30;;
7128;SDS011;3606;52.930;8.644;2022-11-21T11:46:08;12.67;;;8.50;;
7128;SDS011;3606;52.930;8.644;2022-11-21T11:49:25;11.60;;;8.07;;
7128;SDS011;3606;52.930;8.644;2022-11-21T11:52:16;12.17;;;8.20;;
7128;SDS011;3606;52.930;8.644;2022-11-21T11:54:47;13.23;;;8.97;;
7128;SDS011;3606;52.930;8.644;2022-11-21T11:57:16;10.27;;;8.43;;
7128;SDS011;3606;52.930;8.644;2022-11-21T11:59:43;11.57;;;8.33;;
7128;SDS011;3606;52.930;8.644;2022-11-21T12:02:18;11.47;;;8.13;;
7128;SDS011;3606;52.930;8.644;2022-11-21T12:05:01;10.77;;;7.93;;
7128;SDS011;3606;52.930;8.644;2022-11-21T12:07:41;9.20;;;7.83;;
7128;SDS011;3606;52.930;8.644;2022-11-21T12:13:01;9.90;;;7.20;;
7128;SDS011;3606;52.930;8.644;2022-11-21T12:26:25;8.87;;;6.33;;
7128;SDS011;3606;52.930;8.644;2022-11-21T12:36:59;8.37;;;6.13;;
7128;SDS011;3606;52.930;8.644;2022-11-21T12:51:46;8.43;;;5.67;;
7128;SDS011;3606;52.930;8.644;2022-11-21T12:57:25;7.10;;;5.80;;
7128;SDS011;3606;52.930;8.644;2022-11-21T13:00:08;7.23;;;5.53;;
7128;SDS011;3606;52.930;8.644;2022-11-21T13:05:31;8.43;;;6.13;;
7128;SDS011;3606;52.930;8.644;2022-11-21T13:08:06;7.43;;;6.17;;
7128;SDS011;3606;52.930;8.644;2022-11-21T13:14:01;8.03;;;5.90;;
7128;SDS011;3606;52.930;8.644;2022-11-21T13:16:33;9.47;;;7.00;;
7128;SDS011;3606;52.930;8.644;2022-11-21T13:19:49;15.23;;;8.87;;
7128;SDS011;3606;52.930;8.644;2022-11-21T13:21:56;11.77;;;7.90;;
7128;SDS011;3606;52.930;8.644;2022-11-21T13:27:31;10.17;;;6.67;;
7128;SDS011;3606;52.930;8.644;2022-11-21T13:32:41;9.03;;;6.23;;
7128;SDS011;3606;52.930;8.644;2022-11-21T13:35:46;7.63;;;6.40;;
7128;SDS011;3606;52.930;8.644;2022-11-21T13:38:03;10.50;;;6.37;;
7128;SDS011;3606;52.930;8.644;2022-11-21T13:40:37;8.70;;;6.37;;
7128;SDS011;3606;52.930;8.644;2022-11-21T13:43:22;9.40;;;6.70;;
7128;SDS011;3606;52.930;8.644;2022-11-21T13:45:49;9.67;;;6.70;;
7128;SDS011;3606;52.930;8.644;2022-11-21T14:07:49;10.60;;;7.73;;
7128;SDS011;3606;52.930;8.644;2022-11-21T14:10:21;13.23;;;6.97;;
7128;SDS011;3606;52.930;8.644;2022-11-21T14:12:57;15.50;;;8.37;;
7128;SDS011;3606;52.930;8.644;2022-11-21T14:15:40;12.13;;;7.93;;
7128;SDS011;3606;52.930;8.644;2022-11-21T14:18:21;11.07;;;7.40;;
7128;SDS011;3606;52.930;8.644;2022-11-21T14:20:51;13.30;;;7.90;;
7128;SDS011;3606;52.930;8.644;2022-11-21T14:23:22;11.80;;;8.23;;
7128;SDS011;3606;52.930;8.644;2022-11-21T14:25:52;13.30;;;8.27;;
7128;SDS011;3606;52.930;8.644;2022-11-21T14:28:28;10.37;;;7.80;;
7128;SDS011;3606;52.930;8.644;2022-11-21T14:33:28;13.27;;;8.90;;
7128;SDS011;3606;52.930;8.644;2022-11-21T14:36:29;12.67;;;8.60;;
7128;SDS011;3606;52.930;8.644;2022-11-21T14:38:54;15.20;;;8.77;;
7128;SDS011;3606;52.930;8.644;2022-11-21T14:43:48;14.93;;;8.77;;
7128;SDS011;3606;52.930;8.644;2022-11-21T14:46:15;12.03;;;7.57;;
7128;SDS011;3606;52.930;8.644;2022-11-21T14:48:44;10.00;;;7.57;;
7128;SDS011;3606;52.930;8.644;2022-11-21T14:51:30;13.13;;;8.00;;
7128;SDS011;3606;52.930;8.644;2022-11-21T14:53:55;12.97;;;7.93;;
7128;SDS011;3606;52.930;8.644;2022-11-21T14:56:30;9.63;;;7.97;;
7128;SDS011;3606;52.930;8.644;2022-11-21T14:59:00;12.37;;;8.93;;
7128;SDS011;3606;52.930;8.644;2022-11-21T15:01:28;20.17;;;11.07;;
7128;SDS011;3606;52.930;8.644;2022-11-21T15:03:58;14.10;;;10.70;;
7128;SDS011;3606;52.930;8.644;2022-11-21T15:06:41;11.80;;;8.10;;
7128;SDS011;3606;52.930;8.644;2022-11-21T15:09:12;11.03;;;8.07;;
7128;SDS011;3606;52.930;8.644;2022-11-21T15:11:51;11.97;;;7.80;;
7128;SDS011;3606;52.930;8.644;2022-11-21T15:14:19;13.77;;;8.20;;
7128;SDS011;3606;52.930;8.644;2022-11-21T15:16:55;13.03;;;8.40;;
7128;SDS011;3606;52.930;8.644;2022-11-21T15:19:26;11.80;;;7.83;;
7128;SDS011;3606;52.930;8.644;2022-11-21T15:21:55;14.67;;;7.87;;
7128;SDS011;3606;52.930;8.644;2022-11-21T15:32:33;13.10;;;8.83;;
7128;SDS011;3606;52.930;8.644;2022-11-21T15:38:02;13.90;;;9.50;;
7128;SDS011;3606;52.930;8.644;2022-11-21T15:43:34;15.57;;;9.67;;
7128;SDS011;3606;52.930;8.644;2022-11-21T15:46:03;13.63;;;9.07;;
7128;SDS011;3606;52.930;8.644;2022-11-21T15:48:41;15.93;;;9.27;;
7128;SDS011;3606;52.930;8.644;2022-11-21T15:51:11;17.77;;;10.77;;
7128;SDS011;3606;52.930;8.644;2022-11-21T15:53:37;17.90;;;10.97;;
7128;SDS011;3606;52.930;8.644;2022-11-21T15:56:03;15.67;;;9.77;;
7128;SDS011;3606;52.930;8.644;2022-11-21T15:58:29;16.00;;;9.77;;
7128;SDS011;3606;52.930;8.644;2022-11-21T16:00:55;15.43;;;9.63;;
7128;SDS011;3606;52.930;8.644;2022-11-21T16:03:21;22.53;;;12.90;;
7128;SDS011;3606;52.930;8.644;2022-11-21T16:05:47;16.87;;;11.03;;
7128;SDS011;3606;52.930;8.644;2022-11-21T16:08:12;14.63;;;9.90;;
7128;SDS011;3606;52.930;8.644;2022-11-21T16:10:38;13.17;;;9.57;;
7128;SDS011;3606;52.930;8.644;2022-11-21T16:13:03;17.00;;;11.40;;
7128;SDS011;3606;52.930;8.644;2022-11-21T16:15:29;14.60;;;10.77;;
7128;SDS011;3606;52.930;8.644;2022-11-21T16:17:55;12.13;;;8.67;;
7128;SDS011;3606;52.930;8.644;2022-11-21T16:20:20;19.80;;;9.57;;
7128;SDS011;3606;52.930;8.644;2022-11-21T16:22:46;14.27;;;9.50;;
7128;SDS011;3606;52.930;8.644;2022-11-21T16:25:12;18.07;;;9.90;;
7128;SDS011;3606;52.930;8.644;2022-11-21T16:27:37;16.63;;;9.10;;
7128;SDS011;3606;52.930;8.644;2022-11-21T16:30:03;17.17;;;10.10;;
7128;SDS011;3606;52.930;8.644;2022-11-21T16:32:29;13.57;;;9.50;;
7128;SDS011;3606;52.930;8.644;2022-11-21T16:34:54;16.80;;;9.43;;
7128;SDS011;3606;52.930;8.644;2022-11-21T16:37:22;14.23;;;8.87;;
7128;SDS011;3606;52.930;8.644;2022-11-21T16:39:47;16.47;;;9.43;;
7128;SDS011;3606;52.930;8.644;2022-11-21T16:42:16;12.57;;;8.87;;
7128;SDS011;3606;52.930;8.644;2022-11-21T16:44:43;15.17;;;9.40;;
7128;SDS011;3606;52.930;8.644;2022-11-21T16:47:09;16.17;;;10.43;;
7128;SDS011;3606;52.930;8.644;2022-11-21T16:49:35;13.53;;;9.17;;
7128;SDS011;3606;52.930;8.644;2022-11-21T16:52:07;12.43;;;9.00;;
7128;SDS011;3606;52.930;8.644;2022-11-21T16:54:33;15.00;;;10.10;;
7128;SDS011;3606;52.930;8.644;2022-11-21T16:56:58;17.87;;;10.63;;
7128;SDS011;3606;52.930;8.644;2022-11-21T16:59:24;17.20;;;10.30;;
7128;SDS011;3606;52.930;8.644;2022-11-21T17:01:50;16.67;;;9.33;;
7128;SDS011;3606;52.930;8.644;2022-11-21T17:04:16;13.73;;;9.03;;
7128;SDS011;3606;52.930;8.644;2022-11-21T17:06:41;12.30;;;9.10;;
7128;SDS011;3606;52.930;8.644;2022-11-21T17:09:07;15.37;;;9.63;;
7128;SDS011;3606;52.930;8.644;2022-11-21T17:11:32;13.70;;;9.90;;
7128;SDS011;3606;52.930;8.644;2022-11-21T17:13:59;17.57;;;10.53;;
7128;SDS011;3606;52.930;8.644;2022-11-21T17:16:27;15.23;;;10.20;;
7128;SDS011;3606;52.930;8.644;2022-11-21T17:18:53;17.80;;;11.03;;
7128;SDS011;3606;52.930;8.644;2022-11-21T17:21:19;13.93;;;9.07;;
7128;SDS011;3606;52.930;8.644;2022-11-21T17:23:45;16.07;;;9.73;;
7128;SDS011;3606;52.930;8.644;2022-11-21T17:26:12;16.50;;;10.13;;